createdAt,value
2022-10-17T00:02:13.254Z,101230.67
2022-10-17T00:04:44.496Z,101230.71
2022-10-17T00:07:15.498Z,101233.98
2022-10-17T00:09:46.946Z,101238.46
2022-10-17T00:12:17.926Z,101246.05
2022-10-17T00:14:48.973Z,101238.48
2022-10-17T00:17:19.920Z,101237.27
2022-10-17T00:19:50.951Z,101241.98
2022-10-17T00:22:22.047Z,101235.85
2022-10-17T00:24:53.374Z,101232.61
2022-10-17T00:27:24.341Z,101230.77
2022-10-17T00:29:55.660Z,101229.11
2022-10-17T00:32:27.063Z,101227.98
2022-10-17T00:34:58.553Z,101231.46
2022-10-17T00:37:31.019Z,101240.83
2022-10-17T00:40:02.201Z,101239.99
2022-10-17T00:42:33.241Z,101244.86
2022-10-17T00:45:18.925Z,101258.70
2022-10-17T00:47:52.843Z,101261.67
2022-10-17T00:50:25.395Z,101258.77
2022-10-17T00:53:00.122Z,101256.00
2022-10-17T00:55:36.802Z,101253.58
2022-10-17T00:58:09.594Z,101252.37
2022-10-17T01:00:41.634Z,101249.23
2022-10-17T01:03:12.703Z,101248.84
2022-10-17T01:05:44.746Z,101252.11
2022-10-17T01:08:16.314Z,101249.16
2022-10-17T01:10:59.267Z,101241.59
2022-10-17T01:17:28.570Z,101247.80
2022-10-17T01:20:30.713Z,101255.73
2022-10-17T01:26:20.338Z,101251.71
2022-10-17T01:29:14.661Z,101244.66
2022-10-17T01:31:50.009Z,101236.95
2022-10-17T01:34:30.958Z,101236.98
2022-10-17T01:37:07.909Z,101239.90
2022-10-17T01:39:45.661Z,101240.64
2022-10-17T01:42:25.810Z,101240.35
2022-10-17T01:45:02.934Z,101242.33
2022-10-17T01:47:33.640Z,101243.58
2022-10-17T01:50:12.717Z,101245.16
2022-10-17T01:52:48.002Z,101239.70
2022-10-17T01:55:24.430Z,101239.92
2022-10-17T01:57:59.130Z,101245.83
2022-10-17T02:00:33.096Z,101247.98
2022-10-17T02:03:08.822Z,101244.89
2022-10-17T02:05:43.810Z,101249.41
2022-10-17T02:08:15.781Z,101248.04
2022-10-17T02:10:53.915Z,101251.34
2022-10-17T02:13:36.576Z,101249.99
2022-10-17T02:16:20.692Z,101249.50
2022-10-17T02:19:14.964Z,101249.88
2022-10-17T02:21:53.332Z,101248.89
2022-10-17T02:24:34.696Z,101249.23
2022-10-17T02:27:13.230Z,101252.68
2022-10-17T02:29:49.089Z,101259.41
2022-10-17T02:32:26.303Z,101262.37
2022-10-17T02:35:01.228Z,101267.73
2022-10-17T02:37:33.967Z,101267.23
2022-10-17T02:40:08.151Z,101272.41
2022-10-17T02:42:43.798Z,101278.13
2022-10-17T02:45:16.613Z,101284.16
2022-10-17T02:47:55.332Z,101284.35
2022-10-17T02:50:34.653Z,101284.36
2022-10-17T02:53:12.067Z,101282.33
2022-10-17T02:55:49.868Z,101290.09
2022-10-17T02:58:25.018Z,101298.38
2022-10-17T03:00:56.160Z,101310.96
2022-10-17T03:03:30.136Z,101316.14
2022-10-17T03:06:04.788Z,101322.19
2022-10-17T03:08:35.809Z,101322.38
2022-10-17T03:11:07.819Z,101324.96
2022-10-17T03:13:39.950Z,101324.79
2022-10-17T03:16:11.518Z,101328.08
2022-10-17T03:18:45.386Z,101327.73
2022-10-17T03:21:19.207Z,101322.58
2022-10-17T03:23:50.300Z,101326.02
2022-10-17T03:26:22.261Z,101329.30
2022-10-17T03:28:54.511Z,101329.65
2022-10-17T03:31:26.232Z,101323.13
2022-10-17T03:33:57.693Z,101322.11
2022-10-17T03:36:28.756Z,101321.97
2022-10-17T03:38:59.917Z,101326.61
2022-10-17T03:41:31.546Z,101325.59
2022-10-17T03:44:02.734Z,101326.44
2022-10-17T03:46:33.802Z,101319.90
2022-10-17T03:49:05.231Z,101311.81
2022-10-17T03:51:37.939Z,101312.85
2022-10-17T03:54:12.467Z,101319.55
2022-10-17T03:56:44.006Z,101321.11
2022-10-17T03:59:18.054Z,101324.86
2022-10-17T04:01:54.564Z,101330.52
2022-10-17T04:04:25.971Z,101331.02
2022-10-17T04:06:57.159Z,101333.58
2022-10-17T04:09:28.422Z,101333.38
2022-10-17T04:12:07.243Z,101334.73
2022-10-17T04:14:39.789Z,101342.30
2022-10-17T04:17:11.228Z,101344.16
2022-10-17T04:22:49.016Z,101350.73
2022-10-17T04:25:21.207Z,101346.67
2022-10-17T04:27:53.171Z,101341.26
2022-10-17T04:30:24.547Z,101339.27
2022-10-17T04:32:57.991Z,101335.60
2022-10-17T04:37:25.421Z,101339.47
2022-10-17T04:39:57.601Z,101341.34
2022-10-17T04:42:29.965Z,101344.24
2022-10-17T04:45:01.090Z,101341.84
2022-10-17T04:47:32.450Z,101349.30
2022-10-17T04:50:03.399Z,101356.22
2022-10-17T04:52:37.552Z,101360.54
2022-10-17T04:55:09.856Z,101364.55
2022-10-17T04:57:40.792Z,101372.66
2022-10-17T05:00:18.893Z,101374.91
2022-10-17T05:02:56.398Z,101381.81
2022-10-17T05:05:27.324Z,101383.88
2022-10-17T05:07:58.732Z,101386.47
2022-10-17T05:10:37.052Z,101393.88
2022-10-17T05:13:08.946Z,101395.27
2022-10-17T05:15:40.781Z,101399.42
2022-10-17T05:18:11.788Z,101402.02
2022-10-17T05:20:44.191Z,101397.86
2022-10-17T05:23:14.952Z,101387.36
2022-10-17T05:25:46.848Z,101386.35
2022-10-17T05:28:17.767Z,101387.41
2022-10-17T05:30:50.263Z,101398.30
2022-10-17T05:33:21.251Z,101410.70
2022-10-17T05:35:52.260Z,101416.70
2022-10-17T05:38:23.255Z,101425.46
2022-10-17T05:40:57.938Z,101434.20
2022-10-17T05:43:29.741Z,101439.00
2022-10-17T05:46:03.680Z,101440.16
2022-10-17T05:48:36.515Z,101443.02
2022-10-17T05:51:09.993Z,101443.29
2022-10-17T05:53:42.794Z,101441.16
2022-10-17T05:56:17.066Z,101440.80
2022-10-17T05:58:50.966Z,101441.11
2022-10-17T06:01:45.411Z,101440.52
2022-10-17T06:04:16.366Z,101435.08
2022-10-17T06:06:47.918Z,101434.65
2022-10-17T06:09:18.964Z,101439.45
2022-10-17T06:11:52.542Z,101443.59
2022-10-17T06:14:24.701Z,101447.59
2022-10-17T06:16:59.353Z,101457.69
2022-10-17T06:19:31.302Z,101456.05
2022-10-17T06:22:02.292Z,101449.86
2022-10-17T06:24:33.367Z,101446.16
2022-10-17T06:27:11.049Z,101440.52
2022-10-17T06:29:42.996Z,101442.42
2022-10-17T06:32:19.315Z,101452.27
2022-10-17T06:34:51.146Z,101459.27
2022-10-17T06:37:22.272Z,101463.33
2022-10-17T06:39:53.196Z,101467.22
2022-10-17T06:42:26.241Z,101461.63
2022-10-17T06:45:20.253Z,101462.63
2022-10-17T06:48:14.910Z,101464.77
2022-10-17T06:50:47.832Z,101473.00
2022-10-17T06:53:25.602Z,101478.69
2022-10-17T06:56:12.587Z,101478.32
2022-10-17T06:59:09.757Z,101481.41
2022-10-17T07:01:44.618Z,101480.15
2022-10-17T07:04:18.141Z,101480.67
2022-10-17T07:06:49.085Z,101479.28
2022-10-17T07:09:22.930Z,101488.17
2022-10-17T07:11:54.337Z,101485.54
2022-10-17T07:14:31.923Z,101490.36
2022-10-17T07:17:03.751Z,101488.73
2022-10-17T07:19:36.039Z,101486.75
2022-10-17T07:22:07.180Z,101482.41
2022-10-17T07:24:40.153Z,101483.15
2022-10-17T07:27:18.656Z,101480.23
2022-10-17T07:29:50.654Z,101482.55
2022-10-17T07:32:27.849Z,101481.61
2022-10-17T07:34:58.730Z,101484.86
2022-10-17T07:37:30.427Z,101489.27
2022-10-17T07:40:03.182Z,101492.81
2022-10-17T07:42:34.214Z,101500.69
2022-10-17T07:45:06.462Z,101499.40
2022-10-17T07:47:37.917Z,101500.80
2022-10-17T07:50:12.329Z,101500.66
2022-10-17T07:52:43.906Z,101504.56
2022-10-17T07:55:15.170Z,101504.70
2022-10-17T07:57:46.032Z,101504.71
2022-10-17T08:00:17.327Z,101515.17
2022-10-17T08:02:48.542Z,101517.02
2022-10-17T08:05:19.360Z,101517.81
2022-10-17T08:07:50.153Z,101520.31
2022-10-17T08:10:21.532Z,101521.19
2022-10-17T08:12:52.385Z,101522.20
2022-10-17T08:15:26.805Z,101523.28
2022-10-17T08:18:01.149Z,101525.23
2022-10-17T08:20:32.024Z,101525.68
2022-10-17T08:23:02.803Z,101531.02
2022-10-17T08:25:33.756Z,101526.71
2022-10-17T08:28:04.754Z,101526.59
2022-10-17T08:30:36.323Z,101524.30
2022-10-17T08:33:07.198Z,101523.39
2022-10-17T08:35:37.997Z,101522.90
2022-10-17T08:38:11.037Z,101513.17
2022-10-17T08:40:44.153Z,101519.53
2022-10-17T08:43:25.683Z,101517.00
2022-10-17T08:46:02.979Z,101511.23
2022-10-17T08:48:42.733Z,101511.86
2022-10-17T08:51:20.453Z,101508.02
2022-10-17T08:53:57.063Z,101510.38
2022-10-17T08:56:47.656Z,101509.29
2022-10-17T08:59:22.864Z,101512.75
2022-10-17T09:02:00.486Z,101509.38
2022-10-17T09:05:01.961Z,101503.02
2022-10-17T09:07:42.936Z,101503.36
2022-10-17T09:10:27.060Z,101503.08
2022-10-17T09:13:09.589Z,101501.30
2022-10-17T09:16:00.722Z,101498.29
2022-10-17T09:18:36.249Z,101497.71
2022-10-17T09:21:19.331Z,101501.38
2022-10-17T09:23:59.672Z,101499.49
2022-10-17T09:26:42.159Z,101499.82
2022-10-17T09:29:22.783Z,101496.02
2022-10-17T09:32:01.839Z,101499.78
2022-10-17T09:34:34.160Z,101494.14
2022-10-17T09:37:10.649Z,101493.61
2022-10-17T09:39:41.980Z,101491.27
2022-10-17T09:42:18.707Z,101488.27
2022-10-17T09:44:57.028Z,101488.16
2022-10-17T09:47:35.831Z,101488.92
2022-10-17T09:50:16.189Z,101490.44
2022-10-17T09:52:47.725Z,101483.30
2022-10-17T09:55:26.695Z,101476.69
2022-10-17T09:57:59.746Z,101483.88
2022-10-17T10:00:33.260Z,101481.19
2022-10-17T10:03:17.677Z,101478.34
2022-10-17T10:06:03.796Z,101476.70
2022-10-17T10:08:37.562Z,101475.71
2022-10-17T10:11:13.887Z,101472.92
2022-10-17T10:13:46.255Z,101470.98
2022-10-17T10:16:21.938Z,101472.55
2022-10-17T10:18:53.852Z,101473.58
2022-10-17T10:21:27.095Z,101471.31
2022-10-17T10:24:13.597Z,101468.03
2022-10-17T10:26:47.869Z,101466.30
2022-10-17T10:29:31.060Z,101460.59
2022-10-17T10:32:11.278Z,101464.57
2022-10-17T10:34:57.071Z,101465.54
2022-10-17T10:37:32.813Z,101466.48
2022-10-17T10:40:06.673Z,101465.64
2022-10-17T10:42:40.672Z,101464.84
2022-10-17T10:45:42.802Z,101464.55
2022-10-17T10:48:22.635Z,101465.36
2022-10-17T10:50:58.533Z,101456.79
2022-10-17T10:53:40.786Z,101457.53
2022-10-17T10:56:17.828Z,101460.02
2022-10-17T10:58:59.791Z,101460.34
2022-10-17T11:01:37.114Z,101459.04
2022-10-17T11:04:29.804Z,101463.63
2022-10-17T11:07:14.313Z,101463.16
2022-10-17T11:09:52.702Z,101463.61
2022-10-17T11:12:26.625Z,101462.30
2022-10-17T11:15:04.445Z,101458.29
2022-10-17T11:17:41.608Z,101456.60
2022-10-17T11:20:21.914Z,101456.53
2022-10-17T11:22:58.846Z,101455.67
2022-10-17T11:25:37.532Z,101455.06
2022-10-17T11:28:16.853Z,101457.52
2022-10-17T11:30:55.522Z,101458.96
2022-10-17T11:33:35.742Z,101461.09
2022-10-17T11:36:09.912Z,101461.94
2022-10-17T11:38:47.661Z,101463.48
2022-10-17T11:41:22.021Z,101459.15
2022-10-17T11:43:58.753Z,101460.29
2022-10-17T11:46:30.596Z,101461.18
2022-10-17T11:49:08.605Z,101460.16
2022-10-17T11:52:03.308Z,101458.34
2022-10-17T11:54:40.299Z,101458.84
2022-10-17T11:57:36.299Z,101465.23
2022-10-17T12:00:22.583Z,101462.18
2022-10-17T12:03:06.570Z,101464.81
2022-10-17T12:05:44.550Z,101462.83
2022-10-17T12:08:26.970Z,101461.42
2022-10-17T12:11:05.241Z,101463.06
2022-10-17T12:13:54.754Z,101466.70
2022-10-17T12:16:47.517Z,101468.21
2022-10-17T12:19:32.505Z,101464.13
2022-10-17T12:22:26.010Z,101459.98
2022-10-17T12:25:03.116Z,101459.60
2022-10-17T12:27:46.343Z,101454.89
2022-10-17T12:30:26.999Z,101447.55
2022-10-17T12:33:08.455Z,101443.13
2022-10-17T12:35:40.472Z,101441.30
2022-10-17T12:38:30.950Z,101442.42
2022-10-17T12:41:06.608Z,101440.98
2022-10-17T12:43:52.619Z,101437.95
2022-10-17T12:46:45.312Z,101435.40
2022-10-17T12:49:41.635Z,101428.95
2022-10-17T12:52:49.515Z,101427.27
2022-10-17T12:55:21.368Z,101423.13
2022-10-17T12:58:01.188Z,101420.63
2022-10-17T13:00:38.479Z,101422.14
2022-10-17T13:03:17.366Z,101423.04
2022-10-17T13:05:51.954Z,101423.66
2022-10-17T13:08:28.265Z,101421.43
2022-10-17T13:10:59.971Z,101417.27
2022-10-17T13:13:40.391Z,101422.00
2022-10-17T13:16:28.468Z,101419.77
2022-10-17T13:18:59.936Z,101424.80
2022-10-17T13:21:31.283Z,101415.27
2022-10-17T13:24:02.161Z,101415.10
2022-10-17T13:26:33.034Z,101411.85
2022-10-17T13:29:13.208Z,101409.60
2022-10-17T13:31:45.664Z,101412.73
2022-10-17T13:34:21.346Z,101416.69
2022-10-17T13:36:56.744Z,101411.67
2022-10-17T13:39:44.768Z,101410.22
2022-10-17T13:42:37.720Z,101405.89
2022-10-17T13:45:18.535Z,101403.42
2022-10-17T13:47:49.914Z,101402.36
2022-10-17T13:50:43.746Z,101402.52
2022-10-17T13:53:26.801Z,101404.84
2022-10-17T13:56:26.509Z,101405.88
2022-10-17T13:58:56.290Z,101403.61
2022-10-17T14:01:29.756Z,101403.63
2022-10-17T14:04:08.903Z,101401.83
2022-10-17T14:06:47.982Z,101391.02
2022-10-17T14:09:25.719Z,101394.27
2022-10-17T14:12:10.989Z,101390.59
2022-10-17T14:15:09.146Z,101390.88
2022-10-17T14:17:39.164Z,101391.90
2022-10-17T14:23:34.177Z,101388.58
2022-10-17T14:26:14.690Z,101385.39
2022-10-17T14:28:47.918Z,101381.52
2022-10-17T14:31:41.956Z,101381.96
2022-10-17T14:34:29.760Z,101381.55
2022-10-17T14:37:01.875Z,101379.77
2022-10-17T14:39:32.800Z,101375.67
2022-10-17T14:42:04.671Z,101373.84
2022-10-17T14:44:38.161Z,101371.48
2022-10-17T14:47:42.665Z,101372.83
2022-10-17T14:50:22.428Z,101369.48
2022-10-17T14:53:04.751Z,101367.32
2022-10-17T14:55:37.236Z,101372.65
2022-10-17T14:58:28.024Z,101375.38
2022-10-17T15:00:59.883Z,101377.73
2022-10-17T15:03:30.888Z,101380.75
2022-10-17T15:06:17.291Z,101380.50
2022-10-17T15:08:48.258Z,101376.95
2022-10-17T15:11:19.092Z,101372.02
2022-10-17T15:13:50.194Z,101374.58
2022-10-17T15:16:23.432Z,101375.21
2022-10-17T15:18:55.417Z,101373.30
2022-10-17T15:21:47.270Z,101374.46
2022-10-17T15:24:18.658Z,101374.63
2022-10-17T15:26:50.403Z,101373.23
2022-10-17T15:29:21.618Z,101371.83
2022-10-17T15:31:52.664Z,101372.89
2022-10-17T15:34:23.750Z,101375.15
2022-10-17T15:36:55.182Z,101369.23
2022-10-17T15:39:31.601Z,101369.52
2022-10-17T15:42:02.913Z,101369.52
2022-10-17T15:44:36.878Z,101372.48
2022-10-17T15:47:13.494Z,101367.91
2022-10-17T15:49:44.410Z,101367.75
2022-10-17T15:52:15.522Z,101369.61
2022-10-17T15:54:46.930Z,101370.27
2022-10-17T15:57:24.449Z,101372.61
2022-10-17T15:59:59.897Z,101369.95
2022-10-17T16:02:33.405Z,101366.29
2022-10-17T16:05:11.333Z,101366.41
2022-10-17T16:07:42.477Z,101362.56
2022-10-17T16:10:13.843Z,101364.59
2022-10-17T16:12:45.366Z,101365.91
2022-10-17T16:15:18.822Z,101366.02
2022-10-17T16:17:49.994Z,101364.76
2022-10-17T16:20:22.922Z,101361.06
2022-10-17T16:22:59.986Z,101359.11
2022-10-17T16:25:32.378Z,101356.29
2022-10-17T16:28:08.442Z,101349.78
2022-10-17T16:30:46.521Z,101349.68
2022-10-17T16:33:17.878Z,101350.05
2022-10-17T16:35:49.544Z,101346.45
2022-10-17T16:38:20.583Z,101348.77
2022-10-17T16:40:52.295Z,101348.29
2022-10-17T16:43:23.121Z,101346.83
2022-10-17T16:45:54.067Z,101342.21
2022-10-17T16:48:29.497Z,101345.27
2022-10-17T16:51:02.366Z,101350.05
2022-10-17T16:53:33.284Z,101351.17
2022-10-17T16:56:05.007Z,101353.37
2022-10-17T16:58:40.248Z,101353.48
2022-10-17T17:01:14.699Z,101352.36
2022-10-17T17:03:51.382Z,101351.23
2022-10-17T17:06:28.877Z,101344.41
2022-10-17T17:09:00.662Z,101345.14
2022-10-17T17:11:32.534Z,101346.75
2022-10-17T17:14:04.126Z,101347.33
2022-10-17T17:16:36.482Z,101346.54
2022-10-17T17:19:13.097Z,101349.23
2022-10-17T17:21:50.159Z,101355.01
2022-10-17T17:24:22.199Z,101360.48
2022-10-17T17:26:56.874Z,101357.80
2022-10-17T17:29:28.411Z,101353.61
2022-10-17T17:31:59.779Z,101352.63
2022-10-17T17:34:32.273Z,101350.47
2022-10-17T17:37:03.903Z,101348.83
2022-10-17T17:39:35.097Z,101349.91
2022-10-17T17:42:06.282Z,101353.98
2022-10-17T17:44:37.462Z,101349.91
2022-10-17T17:47:09.533Z,101349.09
2022-10-17T17:49:40.596Z,101349.00
2022-10-17T17:52:17.646Z,101346.30
2022-10-17T17:54:48.846Z,101349.33
2022-10-17T17:57:19.937Z,101348.50
2022-10-17T17:59:52.362Z,101340.41
2022-10-17T18:02:23.410Z,101345.66
2022-10-17T18:04:55.379Z,101350.21
2022-10-17T18:07:27.347Z,101347.70
2022-10-17T18:09:58.488Z,101346.71
2022-10-17T18:12:30.461Z,101345.76
2022-10-17T18:15:02.120Z,101347.39
2022-10-17T18:17:34.821Z,101347.83
2022-10-17T18:20:07.201Z,101350.31
2022-10-17T18:22:38.183Z,101344.66
2022-10-17T18:25:12.580Z,101345.40
2022-10-17T18:27:43.553Z,101343.58
2022-10-17T18:30:21.161Z,101347.40
2022-10-17T18:32:58.129Z,101348.33
2022-10-17T18:35:29.253Z,101346.67
2022-10-17T18:38:00.499Z,101343.47
2022-10-17T18:40:32.076Z,101339.36
2022-10-17T18:43:03.441Z,101340.09
2022-10-17T18:45:36.714Z,101335.09
2022-10-17T18:48:10.109Z,101332.90
2022-10-17T18:50:41.512Z,101328.83
2022-10-17T18:53:12.705Z,101331.48
2022-10-17T18:55:43.837Z,101333.96
2022-10-17T18:58:14.845Z,101332.61
2022-10-17T19:00:46.444Z,101334.90
2022-10-17T19:03:18.243Z,101335.11
2022-10-17T19:05:49.257Z,101326.73
2022-10-17T19:08:20.851Z,101326.25
2022-10-17T19:10:52.190Z,101322.16
2022-10-17T19:13:28.050Z,101319.83
2022-10-17T19:15:59.268Z,101324.91
2022-10-17T19:18:30.716Z,101325.31
2022-10-17T19:21:06.197Z,101324.85
2022-10-17T19:23:38.816Z,101320.22
2022-10-17T19:26:13.182Z,101317.84
2022-10-17T19:28:48.008Z,101314.94
2022-10-17T19:32:12.102Z,101316.04
2022-10-17T19:34:46.893Z,101309.22
2022-10-17T19:37:18.061Z,101310.60
2022-10-17T19:39:51.220Z,101310.64
2022-10-17T19:42:22.283Z,101310.66
2022-10-17T19:44:54.107Z,101309.49
2022-10-17T19:47:25.815Z,101309.04
2022-10-17T19:49:56.772Z,101311.52
2022-10-17T19:52:28.785Z,101312.94
2022-10-17T19:55:04.280Z,101311.25
2022-10-17T19:57:36.556Z,101310.25
2022-10-17T20:00:10.286Z,101307.34
2022-10-17T20:02:43.348Z,101303.44
2022-10-17T20:05:21.646Z,101302.09
2022-10-17T20:07:55.382Z,101296.83
2022-10-17T20:10:26.853Z,101298.30
2022-10-17T20:12:58.041Z,101294.92
2022-10-17T20:15:29.470Z,101298.79
2022-10-17T20:18:01.921Z,101294.67
2022-10-17T20:20:34.916Z,101295.95
2022-10-17T20:23:06.563Z,101294.28
2022-10-17T20:25:38.404Z,101290.02
2022-10-17T20:28:09.739Z,101286.61
2022-10-17T20:30:47.891Z,101284.73
2022-10-17T20:33:19.065Z,101282.36
2022-10-17T20:35:50.304Z,101279.45
2022-10-17T20:38:21.426Z,101278.48
2022-10-17T20:40:52.300Z,101278.34
2022-10-17T20:43:23.677Z,101278.56
2022-10-17T20:46:03.585Z,101272.02
2022-10-17T20:48:39.703Z,101270.52
2022-10-17T20:51:12.657Z,101270.38
2022-10-17T20:53:43.922Z,101269.91
2022-10-17T20:56:23.436Z,101264.63
2022-10-17T20:58:57.478Z,101258.98
2022-10-17T21:01:30.682Z,101260.59
2022-10-17T21:04:20.694Z,101258.05
2022-10-17T21:06:55.603Z,101257.73
2022-10-17T21:09:27.473Z,101263.80
2022-10-17T21:11:58.714Z,101262.77
2022-10-17T21:14:30.424Z,101260.92
2022-10-17T21:17:04.996Z,101259.59
2022-10-17T21:19:35.347Z,101264.64
2022-10-17T21:22:06.203Z,101259.52
2022-10-17T21:24:39.111Z,101256.11
2022-10-17T21:27:17.012Z,101252.71
2022-10-17T21:29:48.707Z,101251.06
2022-10-17T21:32:32.131Z,101246.79
2022-10-17T21:35:11.656Z,101244.08
2022-10-17T21:37:42.496Z,101245.02
2022-10-17T21:40:15.366Z,101243.87
2022-10-17T21:42:47.440Z,101235.66
2022-10-17T21:45:25.228Z,101239.15
2022-10-17T21:48:13.362Z,101238.52
2022-10-17T21:50:44.711Z,101236.86
2022-10-17T21:53:15.765Z,101232.94
2022-10-17T21:55:46.970Z,101232.83
2022-10-17T21:58:18.963Z,101229.61
2022-10-17T22:00:50.711Z,101230.70
2022-10-17T22:03:21.682Z,101230.55
2022-10-17T22:06:07.091Z,101231.92
2022-10-17T22:08:46.715Z,101229.21
2022-10-17T22:11:20.747Z,101227.53
2022-10-17T22:13:56.780Z,101226.34
2022-10-17T22:16:28.214Z,101227.07
2022-10-17T22:19:04.922Z,101229.35
2022-10-17T22:21:38.937Z,101231.45
2022-10-17T22:24:12.342Z,101231.45
2022-10-17T22:26:45.067Z,101232.70
2022-10-17T22:29:16.784Z,101227.54
2022-10-17T22:31:47.847Z,101228.11
2022-10-17T22:34:19.522Z,101233.83
2022-10-17T22:36:50.385Z,101226.30
2022-10-17T22:39:21.290Z,101225.96
2022-10-17T22:41:52.104Z,101224.96
2022-10-17T22:44:22.986Z,101223.77
2022-10-17T22:46:53.734Z,101222.45
2022-10-17T22:49:24.590Z,101219.55
2022-10-17T22:51:55.402Z,101219.61
2022-10-17T22:54:26.348Z,101221.21
2022-10-17T22:56:57.193Z,101222.10
2022-10-17T22:59:28.046Z,101222.13
2022-10-17T23:01:58.885Z,101223.54
2022-10-17T23:04:30.111Z,101220.65
2022-10-17T23:07:01.045Z,101223.09
2022-10-17T23:09:32.127Z,101220.55
2022-10-17T23:12:02.906Z,101223.15
2022-10-17T23:14:34.187Z,101223.52
2022-10-17T23:17:05.011Z,101221.29
2022-10-17T23:19:36.543Z,101219.23
2022-10-17T23:22:08.467Z,101216.48
2022-10-17T23:24:39.304Z,101220.98
2022-10-17T23:27:10.120Z,101219.26
2022-10-17T23:29:40.953Z,101224.27
2022-10-17T23:32:11.789Z,101222.38
2022-10-17T23:34:42.607Z,101223.93
2022-10-17T23:37:13.571Z,101224.60
2022-10-17T23:39:44.436Z,101220.97
2022-10-17T23:42:15.614Z,101218.73
2022-10-17T23:44:46.398Z,101215.81
2022-10-17T23:47:17.396Z,101215.13
2022-10-17T23:49:48.330Z,101217.20
2022-10-17T23:52:19.343Z,101219.98
2022-10-17T23:54:50.344Z,101215.83
2022-10-17T23:57:21.301Z,101216.00
2022-10-17T23:59:52.224Z,101214.63
